Kintore, United Kingdom
Current Conditions -  °F | °C
As of 6:20 PM on Monday 24 Nov 2014 (Local Time) from EGPD Reporting Station
Clear Clear  
Wind Chill: 42°   Ceiling: Unl
Heat Index: 45°   Visibility: 6mi
Dew Point: 37°   Wind: 5mph
Humidity: 76%   Direction: 180°S
Pressure: 30.12"   Gusts: NA
Location:  57.24°N, 2.35°W
Report Text: EGPD 241820Z 18004KT 150V230 CAVOK 07/03 Q1020 NOSIG
Loading
Personal Weather Stations






























Interactive Weather Map New forecast layout! Learn more

10-Day Weather Forecast

Advertisements
Track Severe Weather on mobile